Hlavní strana
METAR-TAF:

METAR-TAF

Letiště :

Molde, Norsko

zeměpisná šířka: 62-45N, zeměpisná délka: 007-16E, výška: 0 m

Aktuální stav počasí

Zpráva byla vytvořena před 41 minutami, v 03:20 UTC
Východní vítr 13 kt
Teplota -2°C
Vlhkost vzduchu 93%
Tlak 1019 hPa
Viditelnost: 2300 m
slabé sněžení

METAR: ENML 050320Z AUTO 08013KT 2300NDV -SN VV/// M02/M03 Q1019

Čas: 06:01 (04:01 UTC)

Předpověď počasí

Zpráva byla vytvořena před 14 hodinami a 10 minutami, v 13:51 UTC
Předpověď platná od 04 v 13 UTC do 04 v 14 UTC
vítr z různých směrů 6 kt
Viditelnost 10 km a více
Skoro jasno ve výšce 1200 ft, Cumulonimbus.
Polojasno ve výšce 2500 ft
Dočasný
od 04 v 13 UTC do 04 v 14 UTC
Viditelnost: 1500 m
ve výšce 800 ft
sněhové přeháňky, déšť

TAF: ENML 041351Z 0413/0414 VRB06KT 9999 FEW012CB SCT025 TEMPO 0413/0414 1500 SHSNRA VV008

Stav a předpovědi počasí z více než 4 000 letišť (zprávy METAR a TAF).

Červené a žluté tečky na mapě představují dostupné meteorologické stanice.

Když kurzor umístíte na tečku, zobrazí se název stanice.

Pak kliknutím zobrazíte stav a předpověď počasí.

Chcete-li změnit mapu, kliknutím na zelené tlačítko se znaménkem +mapu přiblížíte, kliknutím na zelené tlačítko se znaménkem – mapu oddálíte a kliknutím na zelené šipky přejdete na sousední mapy.


METAR-TAF: